6°C Temp
3°C Dewpoint
% Humidity
Temperature
29 KM/H
18 MPH
16 KTS
70°
East North
East

Wind Speed
Mostly Cloudy
Conditions
Pressure 1005.92 (hPa) - 29.7 (in)
Visibility 6.2 (mi) - 10.0 (km)

Current Conditions
BIRK
Location 8(km)
Metar :BIRK 080300Z 07016G30KT 9999 -DZRA BKN017 OVC035 06/03 Q1006
Mon 8th March 03:00 am

Airport
  Metar Aviation API Data Provided by https://www.checkwx.com/ PHP scripts by weather34.com ©2021